Time;durP1;ratioP1;P1;durP2;ratioP2;P2;SDS_P1;SDS_P2;PMS_P1;PMS_P2;Temp;Humidity;BMP_temperature;BMP_pressure;BME280_temperature;BME280_humidity;BME280_pressure;Samples;Min_cycle;Max_cycle;Signal;HPM_P1;HPM_P2
2021/11/01 00:00:19;;;;;;;10.67;3.00;;;11.80;99.90;;;;;;5071196;28;20212;-72
2021/11/01 00:02:46;;;;;;;7.20;3.33;;;11.80;99.90;;;;;;5070847;28;20526;-72
2021/11/01 00:05:12;;;;;;;10.80;3.10;;;11.80;99.90;;;;;;5070964;28;20461;-72
2021/11/01 00:07:37;;;;;;;13.23;3.50;;;11.80;99.90;;;;;;5071228;28;20404;-72
2021/11/01 00:10:05;;;;;;;6.77;2.80;;;11.80;99.90;;;;;;5071509;28;20542;-72
2021/11/01 00:12:32;;;;;;;5.67;3.10;;;11.80;99.90;;;;;;5057172;28;20209;-72
2021/11/01 00:14:58;;;;;;;8.63;3.27;;;11.70;99.90;;;;;;5074212;28;20487;-72
2021/11/01 00:17:25;;;;;;;13.30;3.70;;;11.80;99.90;;;;;;5074607;28;20836;-71
2021/11/01 00:19:51;;;;;;;8.97;3.50;;;11.70;99.90;;;;;;5074753;28;20447;-71
2021/11/01 00:22:17;;;;;;;8.80;3.10;;;11.70;99.90;;;;;;5074573;28;20423;-72
2021/11/01 00:24:42;;;;;;;9.20;3.70;;;11.70;99.90;;;;;;5074433;28;20460;-71
2021/11/01 00:27:08;;;;;;;16.30;3.90;;;11.70;99.90;;;;;;5074542;28;20548;-71
2021/11/01 00:29:34;;;;;;;5.40;3.07;;;11.70;99.90;;;;;;5074561;28;20654;-71
2021/11/01 00:32:00;;;;;;;7.13;3.30;;;11.80;99.90;;;;;;5074433;28;20193;-71
2021/11/01 00:34:25;;;;;;;8.17;3.13;;;11.70;99.90;;;;;;5056301;28;20180;-71
2021/11/01 00:36:53;;;;;;;8.13;2.60;;;11.70;99.90;;;;;;5074128;28;20414;-71
2021/11/01 00:39:19;;;;;;;9.17;2.80;;;11.70;99.90;;;;;;5074268;28;20162;-71
2021/11/01 00:41:44;;;;;;;11.83;4.20;;;11.70;99.90;;;;;;5077243;28;20500;-71
2021/11/01 00:44:10;;;;;;;6.23;2.87;;;11.70;99.90;;;;;;5084747;28;20516;-73
2021/11/01 00:46:36;;;;;;;10.40;2.73;;;11.60;99.90;;;;;;5081604;28;20223;-71
2021/11/01 00:49:03;;;;;;;9.20;3.90;;;11.60;99.90;;;;;;5083244;28;20522;-72
2021/11/01 00:51:29;;;;;;;6.33;2.70;;;11.60;99.90;;;;;;5083263;28;20481;-72
2021/11/01 00:53:54;;;;;;;5.37;2.17;;;11.60;99.90;;;;;;5089342;28;20432;-71
2021/11/01 00:56:20;;;;;;;5.57;2.77;;;11.60;99.90;;;;;;5079603;28;20668;-71
2021/11/01 00:58:45;;;;;;;5.50;2.70;;;11.60;99.90;;;;;;5073874;28;20239;-71
2021/11/01 01:01:14;;;;;;;7.67;2.70;;;11.50;99.90;;;;;;5074197;28;20578;-71
2021/11/01 01:03:42;;;;;;;6.53;3.50;;;11.50;99.90;;;;;;5074280;28;20234;-71
2021/11/01 01:06:07;;;;;;;8.83;3.30;;;11.40;99.90;;;;;;5073715;28;20415;-71
2021/11/01 01:08:33;;;;;;;10.63;3.43;;;11.30;99.90;;;;;;5073876;28;20400;-70
2021/11/01 01:10:59;;;;;;;8.40;3.00;;;11.30;99.90;;;;;;5073232;28;20736;-71
2021/11/01 01:13:28;;;;;;;5.67;3.00;;;11.20;99.90;;;;;;5073344;28;20193;-71
2021/11/01 01:18:57;;;;;;;5.90;2.40;;;11.30;99.90;;;;;;4991866;28;20450;-71
2021/11/01 01:24:09;;;;;;;4.00;1.70;;;11.30;99.90;;;;;;4991746;28;20466;-71
2021/11/01 01:26:34;;;;;;;5.10;2.50;;;11.40;99.90;;;;;;4991653;28;20423;-71
2021/11/01 01:29:00;;;;;;;6.20;2.37;;;11.40;99.90;;;;;;4991780;28;20427;-70
2021/11/01 01:31:26;;;;;;;4.97;2.40;;;11.40;99.90;;;;;;4991390;28;20227;-71
2021/11/01 01:33:52;;;;;;;7.53;3.10;;;11.40;99.90;;;;;;4991504;28;20702;-71
2021/11/01 01:36:18;;;;;;;5.60;2.13;;;11.40;99.90;;;;;;4991397;28;20446;-71
2021/11/01 01:38:46;;;;;;;11.23;3.13;;;11.40;99.90;;;;;;4991480;28;20236;-71
2021/11/01 01:41:15;;;;;;;4.10;2.10;;;11.40;99.90;;;;;;4991599;28;20430;-71
2021/11/01 01:43:49;;;;;;;6.77;2.57;;;11.40;99.90;;;;;;4991316;28;20455;-71
2021/11/01 01:46:16;;;;;;;6.47;2.60;;;11.30;99.90;;;;;;4990878;28;20529;-72
2021/11/01 01:48:42;;;;;;;9.40;2.33;;;11.40;99.90;;;;;;4991329;28;20810;-72
2021/11/01 01:51:09;;;;;;;5.37;2.07;;;11.40;99.90;;;;;;4974956;28;20458;-72
2021/11/01 01:53:35;;;;;;;8.83;2.73;;;11.40;99.90;;;;;;5055681;28;20955;-72
2021/11/01 01:56:01;;;;;;;4.93;2.50;;;11.40;99.90;;;;;;5072540;28;20404;-72
2021/11/01 01:58:29;;;;;;;4.17;2.10;;;11.30;99.90;;;;;;5073176;28;20173;-72
2021/11/01 02:03:29;;;;;;;6.53;1.60;;;11.30;99.90;;;;;;5073434;28;20427;-72
2021/11/01 02:06:20;;;;;;;4.20;2.33;;;11.40;99.90;;;;;;5072896;28;20897;-72
2021/11/01 02:08:58;;;;;;;3.43;2.20;;;11.30;99.90;;;;;;5044751;28;20185;-72
2021/11/01 02:11:34;;;;;;;5.70;2.67;;;11.30;99.90;;;;;;5073702;28;20458;-71
2021/11/01 02:14:01;;;;;;;8.30;2.87;;;11.40;99.90;;;;;;5073780;28;20419;-72
2021/11/01 02:16:31;;;;;;;6.13;2.23;;;11.40;99.90;;;;;;5071936;28;20500;-72
2021/11/01 02:18:58;;;;;;;6.47;1.80;;;11.40;99.90;;;;;;5072370;28;20443;-72
2021/11/01 02:21:43;;;;;;;5.00;2.30;;;11.40;99.90;;;;;;5072321;28;20412;-71
2021/11/01 02:24:21;;;;;;;7.47;2.27;;;11.30;99.90;;;;;;5072795;28;20415;-72
2021/11/01 02:26:49;;;;;;;4.70;1.83;;;11.30;99.90;;;;;;5071750;28;20408;-73
2021/11/01 02:29:16;;;;;;;6.00;2.50;;;11.30;99.90;;;;;;5072172;28;20923;-73
2021/11/01 02:31:43;;;;;;;6.63;2.17;;;11.30;99.90;;;;;;5071959;28;20554;-72
2021/11/01 02:34:09;;;;;;;7.33;1.97;;;11.30;99.90;;;;;;5071301;28;20404;-72
2021/11/01 02:36:34;;;;;;;4.07;1.90;;;11.30;99.90;;;;;;5071716;28;20418;-72
2021/11/01 02:39:01;;;;;;;5.83;2.50;;;11.30;99.90;;;;;;5071912;28;20433;-72
2021/11/01 02:41:31;;;;;;;6.30;1.93;;;11.30;99.90;;;;;;5071796;28;20173;-72
2021/11/01 02:44:08;;;;;;;6.17;3.10;;;11.30;99.90;;;;;;5043679;22;20499;-71
2021/11/01 02:46:34;;;;;;;8.03;3.20;;;11.30;99.90;;;;;;4994470;28;20412;-72
2021/11/01 02:49:00;;;;;;;6.37;3.30;;;11.30;99.90;;;;;;4990084;28;20412;-69
2021/11/01 02:51:27;;;;;;;4.13;2.50;;;11.30;99.90;;;;;;4989871;28;20497;-69
2021/11/01 02:53:55;;;;;;;6.93;1.97;;;11.30;99.90;;;;;;4989681;28;20279;-71
2021/11/01 02:56:21;;;;;;;6.03;2.23;;;11.30;99.90;;;;;;4989550;28;20663;-72
2021/11/01 02:58:47;;;;;;;7.10;2.00;;;11.30;99.90;;;;;;4989857;28;20419;-71
2021/11/01 03:01:15;;;;;;;5.87;2.77;;;11.30;99.90;;;;;;4989744;28;20172;-71
2021/11/01 03:03:43;;;;;;;5.47;1.80;;;11.30;99.90;;;;;;4989713;28;20183;-71
2021/11/01 03:06:10;;;;;;;4.57;2.50;;;11.30;99.90;;;;;;4987974;28;20446;-71
2021/11/01 03:08:37;;;;;;;3.60;2.17;;;11.30;99.90;;;;;;4990189;28;20805;-71
2021/11/01 03:11:04;;;;;;;8.50;2.80;;;11.30;99.90;;;;;;4989753;28;20436;-71
2021/11/01 03:13:34;;;;;;;3.50;2.00;;;11.20;99.90;;;;;;4989692;28;20431;-71
2021/11/01 03:16:03;;;;;;;9.53;2.30;;;11.20;99.90;;;;;;4989429;28;20767;-71
2021/11/01 03:18:33;;;;;;;5.70;2.40;;;11.20;99.90;;;;;;4989458;28;20415;-71
2021/11/01 03:21:10;;;;;;;4.10;2.03;;;11.10;99.90;;;;;;4989836;28;20431;-71
2021/11/01 03:23:37;;;;;;;3.03;2.13;;;11.10;99.90;;;;;;4988489;28;20439;-71
2021/11/01 03:26:10;;;;;;;3.73;2.63;;;11.10;99.90;;;;;;4988968;28;20423;-71
2021/11/01 03:28:37;;;;;;;7.30;2.00;;;11.10;99.90;;;;;;4989615;28;20399;-71
2021/11/01 03:31:05;;;;;;;4.03;2.10;;;11.10;99.90;;;;;;4989945;28;20487;-70
2021/11/01 03:33:38;;;;;;;8.40;2.73;;;11.10;99.90;;;;;;4989526;28;20497;-71
2021/11/01 03:36:06;;;;;;;7.83;2.13;;;11.10;99.90;;;;;;4988910;28;20396;-71
2021/11/01 03:38:33;;;;;;;5.57;1.60;;;11.10;99.90;;;;;;4988507;28;20403;-71
2021/11/01 03:41:00;;;;;;;6.47;1.90;;;11.10;99.90;;;;;;4989479;28;20407;-69
2021/11/01 03:43:34;;;;;;;4.03;2.10;;;11.10;99.90;;;;;;4989185;28;20455;-70
2021/11/01 03:46:00;;;;;;;5.30;1.90;;;11.10;99.90;;;;;;4991525;28;20412;-69
2021/11/01 03:48:29;;;;;;;3.30;1.90;;;11.10;99.90;;;;;;4992631;28;20400;-69
2021/11/01 03:51:02;;;;;;;3.93;2.63;;;11.00;99.90;;;;;;4992922;28;20407;-70
2021/11/01 03:53:27;;;;;;;6.13;1.90;;;11.00;99.90;;;;;;4992842;28;20440;-70
2021/11/01 03:55:53;;;;;;;3.70;2.30;;;11.00;99.90;;;;;;4992151;28;20411;-70
2021/11/01 03:58:19;;;;;;;6.50;1.83;;;11.10;99.90;;;;;;4992650;28;20255;-70
2021/11/01 04:00:44;;;;;;;2.90;1.80;;;11.00;99.90;;;;;;4992627;28;20176;-72
2021/11/01 04:03:10;;;;;;;4.77;1.80;;;11.00;99.90;;;;;;4992368;28;20928;-70
2021/11/01 04:05:37;;;;;;;3.80;1.90;;;11.00;99.90;;;;;;4992456;28;20188;-70
2021/11/01 04:08:02;;;;;;;4.07;2.53;;;11.00;99.90;;;;;;4992372;28;20233;-70
2021/11/01 04:10:29;;;;;;;3.30;1.70;;;11.00;99.90;;;;;;4992363;28;20435;-71
2021/11/01 04:12:54;;;;;;;5.37;2.50;;;11.00;99.90;;;;;;4993165;28;20667;-70
2021/11/01 04:15:25;;;;;;;3.90;2.40;;;11.00;99.90;;;;;;4991866;28;20520;-71
2021/11/01 04:17:57;;;;;;;5.37;2.57;;;10.90;99.90;;;;;;4992554;28;20403;-71
2021/11/01 04:20:29;;;;;;;6.53;2.03;;;10.90;99.90;;;;;;4990942;28;20507;-71
2021/11/01 04:23:03;;;;;;;5.33;1.97;;;10.90;99.90;;;;;;4991027;28;20454;-70
2021/11/01 04:25:30;;;;;;;7.83;2.60;;;10.90;99.90;;;;;;4992099;28;20816;-70
2021/11/01 04:27:57;;;;;;;7.33;2.50;;;10.90;99.90;;;;;;4992003;28;20418;-69
2021/11/01 04:30:25;;;;;;;6.50;2.23;;;10.90;99.90;;;;;;4992131;28;20817;-71
2021/11/01 04:32:55;;;;;;;5.30;2.13;;;10.80;99.90;;;;;;4992520;28;20459;-70
2021/11/01 04:35:29;;;;;;;7.13;3.37;;;10.80;99.90;;;;;;4990557;28;20839;-70
2021/11/01 04:38:12;;;;;;;2.53;2.33;;;10.80;99.90;;;;;;4991677;28;21091;-70
2021/11/01 04:43:24;;;;;;;3.70;2.10;;;10.80;99.90;;;;;;4991835;28;20451;-70
2021/11/01 04:54:03;;;;;;;5.40;1.90;;;10.80;99.90;;;;;;4991975;28;20521;-70
2021/11/01 04:56:28;;;;;;;4.73;2.30;;;10.70;99.90;;;;;;4990382;28;20801;-71
2021/11/01 04:58:56;;;;;;;6.87;2.33;;;10.70;99.90;;;;;;4991698;28;20411;-70
2021/11/01 05:01:39;;;;;;;6.57;2.67;;;10.70;99.90;;;;;;4991842;28;20179;-70
2021/11/01 05:04:07;;;;;;;6.70;2.97;;;10.70;99.90;;;;;;4991639;28;20431;-71
2021/11/01 05:06:35;;;;;;;4.60;2.10;;;10.70;99.90;;;;;;4991205;28;20411;-71
2021/11/01 05:09:16;;;;;;;4.40;2.13;;;10.70;99.90;;;;;;4990144;28;20510;-71
2021/11/01 05:11:55;;;;;;;3.13;2.33;;;10.70;99.90;;;;;;4991639;28;20470;-70
2021/11/01 05:14:52;;;;;;;3.50;1.87;;;10.60;99.90;;;;;;4991857;28;20511;-70
2021/11/01 05:19:39;;;;;;;2.90;1.50;;;10.60;99.90;;;;;;4991760;28;20502;-70
2021/11/01 05:22:15;;;;;;;7.77;2.10;;;10.60;99.90;;;;;;4991603;28;20252;-70
2021/11/01 05:24:45;;;;;;;3.37;1.80;;;10.60;99.90;;;;;;4991390;28;20415;-71
2021/11/01 05:29:47;;;;;;;4.20;1.90;;;10.60;99.90;;;;;;4991392;28;20399;-69
2021/11/01 05:32:17;;;;;;;4.37;2.23;;;10.60;99.90;;;;;;4991021;28;20485;-71
2021/11/01 05:34:43;;;;;;;4.40;2.43;;;10.60;99.90;;;;;;4990767;28;20751;-70
2021/11/01 05:37:10;;;;;;;4.23;1.83;;;10.60;99.90;;;;;;4991174;28;20415;-70
2021/11/01 05:39:38;;;;;;;4.80;2.30;;;10.60;99.90;;;;;;4990954;28;20172;-71
2021/11/01 05:42:05;;;;;;;3.30;2.23;;;10.60;99.90;;;;;;4990752;28;20412;-72
2021/11/01 05:44:30;;;;;;;5.47;1.70;;;10.60;99.90;;;;;;4990758;28;21148;-71
2021/11/01 05:46:56;;;;;;;3.83;1.77;;;10.50;99.90;;;;;;4989376;28;20418;-69
2021/11/01 05:49:23;;;;;;;2.63;1.77;;;10.50;99.90;;;;;;4991240;28;20252;-69
2021/11/01 05:51:51;;;;;;;4.70;2.00;;;10.50;99.90;;;;;;4990614;28;20694;-70
2021/11/01 05:54:20;;;;;;;3.43;1.77;;;10.50;99.90;;;;;;4990731;28;20853;-70
2021/11/01 06:14:37;;;;;;;5.20;2.00;;;10.50;99.90;;;;;;4990314;28;20269;-69
2021/11/01 06:17:03;;;;;;;3.23;2.10;;;10.40;99.90;;;;;;4990237;28;20470;-70
2021/11/01 06:19:29;;;;;;;3.27;2.10;;;10.40;99.90;;;;;;4991347;28;20263;-70
2021/11/01 06:21:55;;;;;;;3.67;2.00;;;10.40;99.90;;;;;;4990497;28;20424;-71
2021/11/01 06:26:55;;;;;;;4.23;1.70;;;10.40;99.90;;;;;;4990700;28;20164;-70
2021/11/01 06:29:25;;;;;;;3.80;1.87;;;10.40;99.90;;;;;;4990862;28;20487;-70
2021/11/01 06:32:03;;;;;;;4.90;2.60;;;10.40;99.90;;;;;;4990545;28;20215;-71
2021/11/01 06:40:18;;;;;;;7.80;2.00;;;10.40;99.90;;;;;;4990753;28;20565;-71
2021/11/01 06:42:59;;;;;;;4.47;2.20;;;10.40;99.90;;;;;;4991643;28;20553;-70
2021/11/01 06:53:39;;;;;;;5.30;2.03;;;10.40;99.90;;;;;;4990084;28;20459;-71
2021/11/01 07:15:19;;;;;;;4.50;1.80;;;10.30;99.90;;;;;;4988909;28;20413;-70
2021/11/01 07:18:09;;;;;;;3.90;2.08;;;10.30;99.90;;;;;;4987360;28;20921;-70
2021/11/01 07:29:55;;;;;;;3.60;1.80;;;10.40;99.90;;;;;;4995909;28;20406;-69
2021/11/01 08:20:54;;;;;;;4.97;1.97;;;10.80;99.90;;;;;;4995607;28;20918;-71
2021/11/01 08:26:29;;;;;;;6.10;2.20;;;10.80;99.90;;;;;;4995324;28;20419;-71
2021/11/01 08:29:02;;;;;;;2.83;1.57;;;10.90;99.90;;;;;;4995368;28;20493;-71
2021/11/01 08:34:55;;;;;;;2.90;2.37;;;11.00;99.90;;;;;;4992289;28;20462;-71
2021/11/01 08:43:03;;;;;;;4.70;2.07;;;11.10;99.90;;;;;;4991967;28;20396;-71
2021/11/01 08:48:34;;;;;;;6.87;2.90;;;11.30;99.90;;;;;;5074687;28;20564;-71
2021/11/01 09:07:26;;;;;;;3.30;1.60;;;11.90;99.90;;;;;;5073644;28;20391;-72
2021/11/01 09:10:13;;;;;;;9.23;2.00;;;12.00;99.90;;;;;;5075762;28;20414;-71
2021/11/01 09:29:01;;;;;;;3.47;1.80;;;12.20;99.90;;;;;;5073859;28;20412;-71
2021/11/01 09:37:05;;;;;;;3.07;1.80;;;12.40;99.90;;;;;;5073612;28;20398;-72
2021/11/01 09:42:15;;;;;;;6.27;1.90;;;12.40;99.90;;;;;;5073009;28;20449;-73
2021/11/01 09:44:46;;;;;;;4.53;1.63;;;12.50;99.90;;;;;;5072225;28;20852;-71
2021/11/01 09:47:12;;;;;;;6.73;2.40;;;12.50;99.90;;;;;;5073039;28;20580;-70
2021/11/01 09:49:38;;;;;;;5.20;2.00;;;12.60;99.90;;;;;;5054945;28;20430;-72
2021/11/01 09:52:08;;;;;;;3.80;1.80;;;12.60;99.90;;;;;;5072915;28;20452;-72
2021/11/01 09:54:37;;;;;;;4.50;1.90;;;12.60;99.90;;;;;;5073128;28;20197;-72
2021/11/01 09:57:08;;;;;;;6.50;1.80;;;12.80;99.90;;;;;;5072790;28;20443;-73
2021/11/01 09:59:39;;;;;;;4.03;1.67;;;12.90;99.90;;;;;;5072854;28;20605;-72
2021/11/01 10:02:12;;;;;;;4.33;2.30;;;12.90;99.90;;;;;;5072668;28;20388;-72
2021/11/01 10:04:41;;;;;;;4.23;1.77;;;12.90;99.90;;;;;;5072606;28;20424;-71
2021/11/01 10:07:48;;;;;;;5.23;1.60;;;12.90;99.90;;;;;;5072246;28;20408;-71
2021/11/01 10:10:14;;;;;;;6.00;1.50;;;12.90;99.90;;;;;;5068575;28;20446;-74
2021/11/01 10:12:44;;;;;;;4.40;1.77;;;12.90;99.90;;;;;;5072394;28;20452;-70
2021/11/01 10:18:02;;;;;;;3.53;1.70;;;13.00;99.90;;;;;;5072956;28;20456;-72
2021/11/01 10:20:31;;;;;;;3.83;1.40;;;13.00;99.90;;;;;;5072285;28;20404;-72
2021/11/01 10:22:57;;;;;;;5.30;2.10;;;13.10;99.90;;;;;;5072620;28;20443;-71
2021/11/01 10:25:24;;;;;;;2.13;1.63;;;13.10;99.90;;;;;;5054012;28;20470;-72
2021/11/01 10:27:59;;;;;;;4.33;1.80;;;13.20;99.90;;;;;;5072288;28;20408;-72
2021/11/01 10:30:30;;;;;;;3.60;1.60;;;13.20;99.90;;;;;;5072250;28;20439;-72
2021/11/01 10:32:59;;;;;;;4.90;1.67;;;13.20;99.90;;;;;;5054195;28;20456;-72
2021/11/01 10:35:29;;;;;;;3.47;1.50;;;13.20;99.90;;;;;;5071682;28;20440;-72
2021/11/01 10:38:10;;;;;;;3.13;1.53;;;13.20;99.90;;;;;;5071952;28;20779;-70
2021/11/01 10:40:41;;;;;;;4.47;2.23;;;13.40;99.90;;;;;;5072479;28;20487;-72
2021/11/01 10:43:22;;;;;;;4.97;1.80;;;13.50;99.90;;;;;;5072451;28;20392;-72
2021/11/01 11:11:17;;;;;;;1.47;0.97;;;13.50;99.90;;;;;;5072097;28;20408;-72
2021/11/01 11:13:48;;;;;;;4.80;1.63;;;13.50;99.90;;;;;;5072053;28;20411;-72
2021/11/01 11:33:48;;;;;;;5.30;1.20;;;13.30;99.90;;;;;;5096969;28;20479;-70
2021/11/01 11:39:37;;;;;;;3.83;1.53;;;13.30;99.90;;;;;;5095211;28;20415;-71
2021/11/01 11:42:32;;;;;;;2.60;1.10;;;13.20;99.90;;;;;;5072023;28;20407;-71
2021/11/01 11:48:10;;;;;;;3.77;1.10;;;13.30;99.90;;;;;;5071953;28;20415;-72
2021/11/01 11:50:38;;;;;;;4.67;1.57;;;13.40;99.90;;;;;;5071712;28;20943;-72
2021/11/01 11:53:14;;;;;;;3.90;1.47;;;13.50;99.90;;;;;;5071040;28;20442;-72
2021/11/01 11:55:45;;;;;;;2.13;1.13;;;13.60;99.90;;;;;;5070947;28;20496;-71
2021/11/01 11:58:14;;;;;;;2.40;1.10;;;13.50;99.90;;;;;;5071572;28;20408;-72
2021/11/01 12:00:41;;;;;;;2.90;1.30;;;13.60;99.90;;;;;;5071393;28;20404;-72
2021/11/01 12:03:19;;;;;;;4.27;1.30;;;13.60;99.90;;;;;;5071245;28;20408;-71
2021/11/01 12:18:47;;;;;;;2.67;1.03;;;13.50;99.60;;;;;;5074820;28;20418;-72
2021/11/01 12:21:13;;;;;;;3.27;1.50;;;13.60;99.30;;;;;;5074693;28;20384;-73
2021/11/01 12:23:42;;;;;;;2.10;1.30;;;13.60;98.50;;;;;;5075244;28;20406;-71
2021/11/01 12:26:13;;;;;;;2.73;1.00;;;13.70;98.70;;;;;;5074613;28;20236;-73
2021/11/01 12:28:40;;;;;;;2.47;1.10;;;13.70;98.60;;;;;;5074711;28;20408;-72
2021/11/01 12:31:13;;;;;;;2.37;1.10;;;13.80;98.50;;;;;;5074933;28;20519;-72
2021/11/01 12:33:41;;;;;;;2.83;1.27;;;13.80;98.60;;;;;;5097180;28;20427;-69
2021/11/01 12:36:08;;;;;;;1.83;0.93;;;13.90;98.60;;;;;;5082294;28;20446;-68
2021/11/01 12:38:42;;;;;;;3.13;1.27;;;13.90;98.60;;;;;;5099656;28;20647;-69
2021/11/01 12:41:18;;;;;;;2.80;1.40;;;13.90;98.50;;;;;;5100041;28;20464;-69
2021/11/01 12:44:13;;;;;;;5.17;1.00;;;13.90;97.60;;;;;;5090732;28;20436;-71
2021/11/01 12:47:07;;;;;;;2.58;1.38;;;14.00;97.30;;;;;;5074369;28;20415;-72
2021/11/01 12:57:46;;;;;;;3.07;1.63;;;14.00;96.40;;;;;;5046101;28;20514;-72
2021/11/01 13:00:13;;;;;;;3.67;1.10;;;13.90;96.60;;;;;;5074397;28;20418;-72
2021/11/01 13:02:42;;;;;;;2.53;1.40;;;14.00;96.60;;;;;;5074476;28;20170;-72
2021/11/01 13:05:21;;;;;;;3.20;1.00;;;14.00;96.50;;;;;;5073742;28;20467;-72
2021/11/01 13:07:54;;;;;;;5.33;1.13;;;13.90;95.60;;;;;;5074026;28;20395;-71
2021/11/01 13:10:26;;;;;;;3.40;1.07;;;13.90;95.80;;;;;;5073889;28;20407;-71
2021/11/01 13:18:23;;;;;;;3.67;2.40;;;13.80;96.20;;;;;;5073669;28;20462;-71
2021/11/01 13:20:57;;;;;;;3.00;1.50;;;13.80;96.10;;;;;;5073682;28;20411;-72
2021/11/01 13:23:24;;;;;;;2.60;1.00;;;13.80;95.90;;;;;;5073938;28;20184;-71
2021/11/01 13:26:13;;;;;;;1.60;0.90;;;13.80;95.80;;;;;;5073532;28;20768;-71
2021/11/01 13:28:50;;;;;;;2.57;1.10;;;13.90;95.70;;;;;;5073578;28;20407;-71
2021/11/01 13:37:12;;;;;;;2.57;1.10;;;13.90;95.80;;;;;;5073187;28;20889;-71
2021/11/01 13:39:37;;;;;;;5.50;1.03;;;13.90;95.60;;;;;;5074400;28;20737;-72
2021/11/01 13:42:09;;;;;;;3.43;1.20;;;14.00;95.60;;;;;;5073377;28;20404;-71
2021/11/01 13:44:35;;;;;;;1.20;0.80;;;14.10;95.80;;;;;;5054914;28;20212;-71
2021/11/01 13:47:03;;;;;;;2.70;1.30;;;14.10;95.60;;;;;;5073135;28;20499;-72
2021/11/01 13:49:34;;;;;;;3.63;1.03;;;14.10;95.70;;;;;;5073349;28;20226;-72
2021/11/01 13:57:50;;;;;;;2.73;1.10;;;14.20;95.60;;;;;;5073695;28;20391;-71
2021/11/01 14:00:33;;;;;;;2.50;1.13;;;14.40;95.80;;;;;;5073128;28;20411;-71
2021/11/01 14:11:19;;;;;;;4.33;1.30;;;14.50;94.50;;;;;;5073124;28;20445;-70
2021/11/01 14:16:35;;;;;;;1.30;1.10;;;14.70;94.70;;;;;;5071871;28;20624;-71
2021/11/01 14:29:41;;;;;;;3.13;1.50;;;14.70;95.00;;;;;;5072407;28;20407;-71
2021/11/01 14:32:26;;;;;;;5.17;1.27;;;14.70;95.00;;;;;;5072679;28;20436;-72
2021/11/01 15:10:06;;;;;;;3.97;1.60;;;14.00;96.00;;;;;;4990012;28;20399;-72
2021/11/01 15:15:30;;;;;;;2.33;1.30;;;13.70;96.30;;;;;;4988962;28;20481;-72
2021/11/01 15:18:10;;;;;;;3.00;1.33;;;13.70;96.60;;;;;;4989534;28;20756;-71
2021/11/01 15:23:27;;;;;;;1.90;0.90;;;13.60;96.90;;;;;;4989497;28;20423;-71
2021/11/01 15:28:51;;;;;;;2.97;1.07;;;13.60;96.90;;;;;;4989632;28;20420;-72
2021/11/01 15:32:10;;;;;;;1.73;1.10;;;13.50;96.90;;;;;;4989310;28;20415;-72
2021/11/01 15:37:07;;;;;;;3.13;1.77;;;13.50;97.20;;;;;;4989557;28;20408;-73
2021/11/01 16:17:22;;;;;;;2.37;1.53;;;13.10;98.80;;;;;;4991993;28;20418;-72
2021/11/01 16:19:52;;;;;;;3.50;2.10;;;13.10;99.10;;;;;;4992371;28;20419;-72
2021/11/01 16:22:19;;;;;;;7.27;1.90;;;13.00;99.00;;;;;;4992048;28;20419;-71
2021/11/01 16:24:46;;;;;;;3.17;1.50;;;13.00;99.20;;;;;;4991521;28;20815;-73
2021/11/01 16:27:14;;;;;;;2.80;1.70;;;12.90;99.30;;;;;;4991980;28;20407;-72
2021/11/01 16:30:01;;;;;;;3.83;1.50;;;12.90;99.50;;;;;;4991765;28;20446;-72
2021/11/01 16:32:37;;;;;;;5.70;1.70;;;12.90;99.80;;;;;;4991671;28;20974;-72
2021/11/01 16:35:06;;;;;;;2.83;2.00;;;12.80;99.90;;;;;;4991503;28;20943;-72
2021/11/01 16:40:00;;;;;;;2.73;1.57;;;12.80;99.90;;;;;;4991697;28;20816;-72
2021/11/01 16:42:31;;;;;;;4.97;1.87;;;12.70;99.90;;;;;;4991620;28;20958;-72
2021/11/01 16:45:04;;;;;;;1.90;1.60;;;12.70;99.90;;;;;;4991348;28;21026;-72
2021/11/01 16:47:30;;;;;;;2.40;2.13;;;12.70;99.90;;;;;;4991537;28;20426;-71
2021/11/01 16:49:55;;;;;;;5.03;1.80;;;12.70;99.90;;;;;;4991473;28;20416;-71
2021/11/01 16:52:21;;;;;;;4.37;1.70;;;12.60;99.90;;;;;;4990287;28;20997;-73
2021/11/01 16:55:13;;;;;;;4.23;1.73;;;12.60;99.90;;;;;;4990596;28;20687;-72
2021/11/01 16:57:48;;;;;;;4.60;1.90;;;12.60;99.90;;;;;;4991286;28;20187;-73
2021/11/01 17:00:26;;;;;;;3.43;1.80;;;12.60;99.90;;;;;;4991742;28;20675;-71
2021/11/01 17:03:26;;;;;;;2.90;1.80;;;12.60;99.90;;;;;;4991369;28;20488;-71
2021/11/01 17:05:59;;;;;;;2.70;2.23;;;12.60;99.90;;;;;;4991132;28;20447;-72
2021/11/01 17:08:54;;;;;;;3.43;1.80;;;12.60;99.90;;;;;;4991217;28;20422;-71
2021/11/01 17:21:17;;;;;;;3.80;2.00;;;12.50;99.90;;;;;;4991351;28;20420;-72
2021/11/01 17:22:43;;;;;;;3.00;1.60;;;12.50;99.90;;;;;;4991097;28;20399;-72
2021/11/01 17:25:11;;;;;;;2.67;1.60;;;12.50;99.90;;;;;;4990703;28;20805;-72
2021/11/01 17:30:30;;;;;;;3.23;1.93;;;12.40;99.90;;;;;;4990997;28;20400;-72
2021/11/01 17:38:38;;;;;;;3.17;1.87;;;12.30;99.90;;;;;;4990904;28;20404;-72
2021/11/01 18:39:48;;;;;;;4.80;2.20;;;11.90;99.90;;;;;;5006247;28;20483;-70
2021/11/01 18:45:24;;;;;;;3.53;2.30;;;11.90;99.90;;;;;;4998442;28;20586;-72
2021/11/01 18:51:02;;;;;;;3.90;1.90;;;11.80;99.90;;;;;;4999290;28;20501;-71
2021/11/01 18:53:41;;;;;;;5.00;2.03;;;11.70;99.90;;;;;;5007630;28;20494;-74
2021/11/01 18:56:09;;;;;;;7.27;2.37;;;11.70;99.90;;;;;;4999406;28;20446;-72
2021/11/01 18:58:38;;;;;;;2.63;1.70;;;11.70;99.90;;;;;;5000862;28;20545;-72
2021/11/01 19:01:07;;;;;;;3.20;1.83;;;11.60;99.90;;;;;;5004449;28;20815;-73
2021/11/01 19:03:38;;;;;;;2.67;1.87;;;11.60;99.90;;;;;;4997585;28;20527;-73
2021/11/01 19:11:27;;;;;;;4.93;2.40;;;11.60;99.90;;;;;;5005772;28;20203;-72
2021/11/01 19:14:18;;;;;;;6.03;2.60;;;11.60;99.90;;;;;;4991587;28;21567;-72
2021/11/01 20:09:55;;;;;;;3.83;1.90;;;11.30;99.90;;;;;;4988570;28;20455;-73
2021/11/01 20:15:11;;;;;;;3.00;1.80;;;11.20;99.90;;;;;;4998513;28;20438;-71
2021/11/01 21:24:36;;;;;;;3.57;2.07;;;10.70;99.90;;;;;;5007706;28;20441;-72
2021/11/01 21:27:03;;;;;;;3.73;1.93;;;10.70;99.90;;;;;;5006733;28;20436;-73
2021/11/01 21:29:31;;;;;;;4.57;2.00;;;10.70;99.90;;;;;;5005567;28;20431;-73
2021/11/01 21:31:57;;;;;;;3.03;2.33;;;10.70;99.90;;;;;;4998525;28;20815;-73
2021/11/01 21:37:02;;;;;;;3.63;2.33;;;10.70;99.90;;;;;;4990894;28;20422;-72
2021/11/01 21:39:28;;;;;;;3.23;2.17;;;10.70;99.90;;;;;;4989193;28;20456;-72
2021/11/01 21:41:55;;;;;;;11.03;2.27;;;10.70;99.90;;;;;;4991523;28;20435;-73
2021/11/01 21:44:21;;;;;;;5.43;2.30;;;10.70;99.90;;;;;;4990942;28;20451;-73
2021/11/01 21:46:47;;;;;;;3.60;2.03;;;10.70;99.90;;;;;;4991285;28;20813;-73
2021/11/01 21:49:12;;;;;;;3.10;2.00;;;10.70;99.90;;;;;;4991336;28;20412;-72
2021/11/01 21:51:40;;;;;;;3.00;2.30;;;10.70;99.90;;;;;;4990798;28;20419;-72
2021/11/01 21:54:27;;;;;;;3.53;2.40;;;10.70;99.90;;;;;;4990839;28;20168;-73
2021/11/01 22:10:34;;;;;;;3.10;1.90;;;10.90;99.90;;;;;;5010566;28;20429;-74
2021/11/01 22:18:29;;;;;;;5.00;2.30;;;10.90;99.90;;;;;;5002447;28;20427;-71
2021/11/01 22:21:12;;;;;;;4.47;2.50;;;10.90;99.90;;;;;;5010442;28;20460;-73
2021/11/01 22:23:56;;;;;;;3.10;2.30;;;10.90;99.90;;;;;;5008754;28;20430;-73
2021/11/01 22:26:43;;;;;;;5.40;2.60;;;11.00;99.90;;;;;;5010276;28;20501;-73
2021/11/01 22:38:18;;;;;;;9.80;4.80;;;10.90;99.90;;;;;;5010106;28;20397;-71
2021/11/01 22:42:46;;;;;;;4.57;2.67;;;10.80;99.90;;;;;;5010224;28;20454;-73
2021/11/01 22:45:22;;;;;;;4.57;2.37;;;10.80;99.90;;;;;;5009969;28;20970;-75
2021/11/01 22:56:26;;;;;;;2.27;2.07;;;10.80;99.90;;;;;;5009436;28;20442;-72
2021/11/01 22:58:52;;;;;;;3.50;2.27;;;10.80;99.90;;;;;;4998301;28;20399;-73
2021/11/01 23:01:23;;;;;;;3.70;2.33;;;10.80;99.90;;;;;;4989922;28;20407;-73
2021/11/01 23:04:04;;;;;;;4.75;2.30;;;10.80;99.90;;;;;;4987890;28;20491;-73
2021/11/01 23:33:35;;;;;;;3.37;2.10;;;11.00;99.90;;;;;;4990136;28;20876;-73
2021/11/01 23:36:00;;;;;;;3.60;2.33;;;11.10;99.90;;;;;;4989563;28;20439;-73
2021/11/01 23:38:26;;;;;;;3.53;1.90;;;11.00;99.90;;;;;;4989572;28;20173;-72
2021/11/01 23:40:52;;;;;;;9.10;2.43;;;11.10;99.90;;;;;;4989775;28;20169;-73
2021/11/01 23:43:18;;;;;;;3.50;2.00;;;11.10;99.90;;;;;;4990111;28;20168;-73
2021/11/01 23:45:45;;;;;;;2.63;2.00;;;11.10;99.90;;;;;;4989106;28;20455;-72
2021/11/01 23:48:13;;;;;;;3.90;1.80;;;11.10;99.90;;;;;;4990045;28;20230;-73
2021/11/01 23:50:40;;;;;;;3.47;2.00;;;11.10;99.90;;;;;;4989462;28;20421;-72
2021/11/01 23:53:13;;;;;;;4.00;1.90;;;11.10;99.90;;;;;;4989515;28;20455;-73
2021/11/01 23:55:39;;;;;;;6.33;2.30;;;11.10;99.90;;;;;;4989552;28;20565;-72
2021/11/01 23:58:07;;;;;;;6.10;2.13;;;11.10;99.90;;;;;;4989965;28;20415;-73
